Time;durP1;ratioP1;P1;durP2;ratioP2;P2;SDS_P1;SDS_P2;PMS_P1;PMS_P2;Temp;Humidity;BMP_temperature;BMP_pressure;BME280_temperature;BME280_humidity;BME280_pressure;Samples;Min_cycle;Max_cycle;Signal;HPM_P1;HPM_P2
2021/07/06 00:00:34;;;;;;;8.52;4.88;;;;;;;19.42;62.51;99569.34;4838092;29;20077;-62
2021/07/06 00:03:00;;;;;;;8.85;4.70;;;;;;;19.40;62.38;99570.44;4821739;29;20493;-63
2021/07/06 00:05:26;;;;;;;10.38;4.50;;;;;;;19.38;62.42;99575.81;4837007;29;20041;-62
2021/07/06 00:07:52;;;;;;;10.23;4.78;;;;;;;19.36;63.06;99577.75;4836212;29;20045;-63
2021/07/06 00:10:20;;;;;;;12.82;4.78;;;;;;;19.34;63.14;99581.44;4822299;29;20042;-64
2021/07/06 00:12:46;;;;;;;10.40;4.60;;;;;;;19.30;63.06;99580.81;5283275;24;20094;-62
2021/07/06 00:15:15;;;;;;;12.85;4.68;;;;;;;19.29;63.18;99586.19;4841514;29;20386;-63
2021/07/06 00:17:41;;;;;;;10.10;4.43;;;;;;;19.24;63.38;99575.97;4842227;29;20038;-62
2021/07/06 00:20:09;;;;;;;11.77;4.85;;;;;;;19.24;63.41;99589.16;4842321;29;20482;-63
2021/07/06 00:22:35;;;;;;;9.93;4.45;;;;;;;19.21;63.57;99581.44;4825391;29;20110;-64
2021/07/06 00:25:01;;;;;;;13.30;4.93;;;;;;;19.19;63.77;99586.00;4838240;29;20061;-63
2021/07/06 00:27:26;;;;;;;13.48;5.30;;;;;;;19.18;63.97;99584.31;4837006;29;20053;-62
2021/07/06 00:29:52;;;;;;;13.38;4.65;;;;;;;19.17;63.99;99585.25;4837714;29;20129;-62
2021/07/06 00:32:18;;;;;;;10.23;4.93;;;;;;;19.16;64.01;99575.66;4837039;29;20046;-62
2021/07/06 00:34:43;;;;;;;12.68;4.90;;;;;;;19.16;64.21;99580.94;4837851;29;20050;-62
2021/07/06 00:37:09;;;;;;;10.15;5.00;;;;;;;19.15;64.19;99579.28;4837811;29;20180;-62
2021/07/06 00:39:35;;;;;;;12.05;4.88;;;;;;;19.15;64.04;99575.78;4836446;29;20156;-64
2021/07/06 00:42:10;;;;;;;12.65;5.07;;;;;;;19.14;64.10;99574.94;4837674;29;20041;-63
2021/07/06 00:44:36;;;;;;;10.43;5.22;;;;;;;19.13;64.34;99585.59;5281604;24;20124;-62
2021/07/06 00:47:03;;;;;;;7.25;4.50;;;;;;;19.12;64.17;99578.63;4825019;29;20042;-62
2021/07/06 00:49:29;;;;;;;13.68;4.55;;;;;;;19.08;64.39;99585.91;4818329;29;20046;-61
2021/07/06 00:51:55;;;;;;;11.88;4.80;;;;;;;19.08;64.60;99585.91;4827860;29;20118;-63
2021/07/06 00:54:20;;;;;;;12.20;4.50;;;;;;;19.07;64.71;99591.28;4833927;29;20050;-63
2021/07/06 00:56:46;;;;;;;10.77;4.63;;;;;;;19.03;64.71;99588.88;4823775;29;20088;-62
2021/07/06 00:59:13;;;;;;;10.77;4.57;;;;;;;19.01;64.80;99592.56;4823108;29;20073;-62
2021/07/06 01:01:38;;;;;;;10.35;4.45;;;;;;;18.99;64.92;99590.06;4819022;29;20046;-62
2021/07/06 01:04:08;;;;;;;9.95;4.70;;;;;;;18.97;64.82;99588.47;4827031;29;20104;-61
2021/07/06 01:06:34;;;;;;;11.65;4.70;;;;;;;18.93;64.87;99593.13;4831439;29;20478;-63
2021/07/06 01:08:59;;;;;;;7.97;4.50;;;;;;;18.92;65.31;99586.16;4835287;29;20060;-62
2021/07/06 01:11:25;;;;;;;17.92;4.90;;;;;;;18.89;65.43;99593.44;4834021;29;20049;-64
2021/07/06 01:13:52;;;;;;;10.43;4.13;;;;;;;18.86;65.35;99589.22;4831573;29;20054;-62
2021/07/06 01:16:18;;;;;;;12.10;3.97;;;;;;;18.87;65.32;99592.69;4832934;29;20042;-62
2021/07/06 01:18:44;;;;;;;10.43;4.30;;;;;;;18.85;65.65;99592.78;4831678;29;20046;-60
2021/07/06 01:21:10;;;;;;;8.45;4.22;;;;;;;18.81;65.54;99596.59;4819025;29;20058;-63
2021/07/06 01:23:36;;;;;;;12.90;4.93;;;;;;;18.81;65.75;99603.66;4823124;29;20601;-62
2021/07/06 01:26:06;;;;;;;9.75;4.18;;;;;;;18.80;65.77;99599.34;4835194;29;20113;-64
2021/07/06 01:28:33;;;;;;;9.65;4.28;;;;;;;18.79;65.89;99606.38;4831751;29;20077;-62
2021/07/06 01:30:59;;;;;;;17.98;4.80;;;;;;;18.78;65.87;99612.63;4819260;29;20141;-62
2021/07/06 01:33:57;;;;;;;11.25;4.57;;;;;;;18.79;66.03;99616.13;5233431;24;20041;31
2021/07/06 01:36:23;;;;;;;12.95;4.50;;;;;;;18.79;65.99;99618.75;4747251;30;20060;-62
2021/07/06 01:38:49;;;;;;;9.45;4.95;;;;;;;18.79;66.17;99616.13;4750775;30;20504;-63
2021/07/06 01:41:16;;;;;;;9.70;4.35;;;;;;;18.77;66.24;99616.22;4750932;30;20051;-63
2021/07/06 01:43:42;;;;;;;10.35;4.65;;;;;;;18.74;66.56;99616.41;4750363;30;20417;-63
2021/07/06 01:46:08;;;;;;;9.45;4.55;;;;;;;18.72;66.68;99615.69;4750613;30;20119;-63
2021/07/06 01:48:33;;;;;;;13.15;4.25;;;;;;;18.68;66.84;99619.47;4750546;30;20071;-63
2021/07/06 01:50:59;;;;;;;11.70;5.25;;;;;;;18.65;66.88;99617.03;4751003;30;20547;-62
2021/07/06 01:53:25;;;;;;;12.40;5.00;;;;;;;18.63;67.43;99623.38;4750530;30;20385;-63
2021/07/06 01:55:52;;;;;;;13.20;4.80;;;;;;;18.59;67.48;99617.47;4750489;30;20048;-63
2021/07/06 01:58:20;;;;;;;16.70;4.70;;;;;;;18.59;67.75;99626.19;4750811;30;20048;-62
2021/07/06 02:00:58;;;;;;;12.43;4.90;;;;;;;18.57;67.71;99628.13;4750446;30;20051;-62
2021/07/06 02:03:23;;;;;;;9.18;4.75;;;;;;;18.56;67.73;99617.69;4749219;30;20182;-62
2021/07/06 02:05:54;;;;;;;9.32;4.15;;;;;;;18.55;67.89;99621.25;4749913;30;20518;-62
2021/07/06 02:08:21;;;;;;;17.42;5.50;;;;;;;18.53;68.18;99626.56;4750448;30;20087;-63
2021/07/06 02:10:49;;;;;;;13.10;5.18;;;;;;;18.55;68.14;99622.09;4747255;30;20401;-61
2021/07/06 02:16:05;;;;;;;17.52;5.00;;;;;;;18.57;68.37;99630.75;4814303;29;20506;-62
2021/07/06 02:18:32;;;;;;;13.80;5.55;;;;;;;18.59;68.21;99634.09;4817080;29;20089;-62
2021/07/06 02:20:59;;;;;;;12.50;5.18;;;;;;;18.61;68.13;99642.75;4818288;29;20042;-64
2021/07/06 02:23:28;;;;;;;10.93;5.63;;;;;;;18.63;68.38;99640.84;4816393;29;20042;-64
2021/07/06 02:25:54;;;;;;;11.50;5.13;;;;;;;18.65;68.59;99645.16;5295604;24;20058;-63
2021/07/06 02:28:21;;;;;;;10.45;4.88;;;;;;;18.67;68.57;99644.13;4838155;29;20042;-62
2021/07/06 02:30:48;;;;;;;13.18;5.07;;;;;;;18.68;68.31;99640.56;4847159;29;20050;-62
2021/07/06 02:33:14;;;;;;;12.32;5.00;;;;;;;18.69;68.26;99644.84;4839428;29;20046;-60
2021/07/06 02:35:44;;;;;;;14.38;5.07;;;;;;;18.67;68.00;99630.13;5294783;24;20054;-64
2021/07/06 02:38:10;;;;;;;8.68;5.07;;;;;;;18.71;68.35;99637.69;4836069;29;20050;-65
2021/07/06 02:40:35;;;;;;;15.38;4.60;;;;;;;18.71;68.28;99634.22;4829288;29;20473;-63
2021/07/06 02:43:02;;;;;;;12.95;4.57;;;;;;;18.75;68.26;99646.22;4840096;29;20049;-63
2021/07/06 02:45:29;;;;;;;11.43;4.57;;;;;;;18.76;68.19;99626.84;4839798;29;20109;-62
2021/07/06 02:47:55;;;;;;;9.82;4.32;;;;;;;18.78;67.68;99646.03;4849040;29;20081;-63
2021/07/06 02:50:23;;;;;;;11.48;4.50;;;;;;;18.82;67.55;99636.97;4846510;29;20042;-62
2021/07/06 02:52:49;;;;;;;10.38;4.45;;;;;;;18.85;67.54;99644.63;4861199;29;20049;-64
2021/07/06 02:55:15;;;;;;;12.38;4.55;;;;;;;18.90;67.28;99643.38;4847743;29;20600;-62
2021/07/06 02:57:41;;;;;;;8.25;4.60;;;;;;;18.95;66.63;99641.25;4862177;29;20486;-63
2021/07/06 03:00:07;;;;;;;12.88;3.95;;;;;;;18.99;66.74;99641.91;4861894;29;20053;-63
2021/07/06 03:02:33;;;;;;;12.20;4.05;;;;;;;19.02;66.89;99641.69;4844947;29;20045;-64
2021/07/06 03:04:58;;;;;;;10.25;5.82;;;;;;;19.05;66.61;99650.22;4848873;29;20049;-63
2021/07/06 03:07:24;;;;;;;17.00;4.60;;;;;;;19.08;66.64;99646.53;4843202;29;20578;-62
2021/07/06 03:09:51;;;;;;;9.45;4.10;;;;;;;19.10;66.82;99647.28;4843279;29;20049;-63
2021/07/06 03:12:16;;;;;;;17.95;5.15;;;;;;;19.11;67.16;99658.63;4860549;29;20433;-63
2021/07/06 03:14:42;;;;;;;10.40;4.30;;;;;;;19.14;67.18;99655.81;4861769;29;20049;-63
2021/07/06 03:17:07;;;;;;;11.82;4.90;;;;;;;19.16;66.91;99654.72;4852796;29;20049;-61
2021/07/06 03:19:33;;;;;;;8.55;4.10;;;;;;;19.16;66.93;99654.72;4839344;29;20053;-62
2021/07/06 03:21:59;;;;;;;9.60;4.50;;;;;;;19.19;66.83;99656.31;4839953;29;20057;-62
2021/07/06 03:24:24;;;;;;;6.20;3.72;;;;;;;19.20;66.76;99656.22;4839219;29;20069;-61
2021/07/06 03:26:50;;;;;;;10.77;4.68;;;;;;;19.22;66.87;99658.72;4839930;29;20429;-62
2021/07/06 03:29:15;;;;;;;12.57;4.63;;;;;;;19.26;66.77;99657.59;4838952;29;20052;-60
2021/07/06 03:31:41;;;;;;;9.45;4.47;;;;;;;19.28;66.56;99656.53;4840295;29;20073;-62
2021/07/06 03:34:07;;;;;;;13.27;5.00;;;;;;;19.31;66.78;99656.28;4839680;29;20052;-62
2021/07/06 03:36:42;;;;;;;7.50;4.20;;;;;;;19.37;66.83;99655.00;5225611;24;20365;31
2021/07/06 03:39:08;;;;;;;18.05;5.95;;;;;;;19.39;66.93;99653.97;4771399;29;20495;-62
2021/07/06 03:41:34;;;;;;;11.27;4.70;;;;;;;19.44;67.13;99658.91;4779874;30;20110;-61
2021/07/06 03:43:59;;;;;;;14.60;5.13;;;;;;;19.49;66.33;99658.63;4782691;29;20051;-65
2021/07/06 03:46:26;;;;;;;15.00;6.20;;;;;;;19.56;66.41;99651.97;4780453;29;20195;-63
2021/07/06 03:48:52;;;;;;;13.55;7.05;;;;;;;19.61;66.55;99661.22;4771826;30;20048;-64
2021/07/06 03:51:18;;;;;;;12.90;5.40;;;;;;;19.65;66.48;99660.06;4765459;30;20043;-63
2021/07/06 03:53:43;;;;;;;11.52;5.45;;;;;;;19.69;66.21;99663.28;4765964;30;20423;-62
2021/07/06 03:56:09;;;;;;;13.15;5.03;;;;;;;19.73;65.46;99665.59;4766368;30;20078;-61
2021/07/06 03:58:35;;;;;;;15.25;5.82;;;;;;;19.77;65.07;99663.59;4765534;30;20643;-63
2021/07/06 04:01:02;;;;;;;10.35;5.53;;;;;;;19.81;65.29;99665.06;4766170;30;20435;-63
2021/07/06 04:03:27;;;;;;;14.68;5.35;;;;;;;19.84;65.17;99665.66;4764890;30;20051;-62
2021/07/06 04:05:53;;;;;;;13.00;6.82;;;;;;;19.88;64.48;99668.94;4766425;30;20040;-62
2021/07/06 04:08:19;;;;;;;17.73;5.35;;;;;;;19.90;64.71;99667.03;5251624;24;20544;-63
2021/07/06 04:10:44;;;;;;;16.00;5.85;;;;;;;19.97;64.88;99675.34;4836421;29;20076;-61
2021/07/06 04:13:10;;;;;;;13.80;5.30;;;;;;;20.05;64.70;99678.25;4838096;29;20042;-64
2021/07/06 04:15:38;;;;;;;10.27;5.75;;;;;;;20.12;63.95;99679.50;4838335;29;20038;-63
2021/07/06 04:21:00;;;;;;;15.85;6.05;;;;;;;20.24;63.87;99678.59;4899607;24;20164;-63
2021/07/06 04:23:25;;;;;;;11.02;5.55;;;;;;;20.28;63.69;99669.50;4841175;29;20054;-64
2021/07/06 04:25:51;;;;;;;19.23;6.47;;;;;;;20.35;63.41;99670.75;4854110;29;20049;-63
2021/07/06 04:28:17;;;;;;;12.20;6.07;;;;;;;20.43;63.14;99670.16;4846583;29;20054;-61
2021/07/06 04:30:42;;;;;;;11.95;5.93;;;;;;;20.48;63.05;99678.59;4818960;29;20471;-62
2021/07/06 04:33:09;;;;;;;15.27;8.13;;;;;;;20.52;62.95;99686.16;4819698;29;20049;-62
2021/07/06 04:35:34;;;;;;;9.70;5.68;;;;;;;20.59;62.30;99683.91;4819171;29;20049;-62
2021/07/06 04:38:00;;;;;;;11.93;7.40;;;;;;;20.64;62.27;99676.47;4819660;29;20051;-63
2021/07/06 04:40:26;;;;;;;14.35;6.60;;;;;;;20.70;61.58;99679.50;4818891;29;20046;-63
2021/07/06 04:42:55;;;;;;;14.90;6.53;;;;;;;20.79;60.92;99682.38;4819464;29;20502;-63
2021/07/06 04:45:21;;;;;;;17.15;6.15;;;;;;;20.84;61.29;99678.44;4818605;29;20522;-62
2021/07/06 04:47:46;;;;;;;11.50;6.72;;;;;;;20.91;61.28;99686.75;4819748;29;20049;-62
2021/07/06 04:50:14;;;;;;;12.07;5.43;;;;;;;20.97;61.16;99683.63;4818805;29;20046;-60
2021/07/06 04:52:44;;;;;;;12.25;6.57;;;;;;;21.03;61.49;99681.38;4819065;29;20074;-62
2021/07/06 04:55:10;;;;;;;7.65;5.40;;;;;;;21.09;60.69;99685.34;4819185;29;20132;-64
2021/07/06 04:57:36;;;;;;;11.80;6.43;;;;;;;21.17;60.75;99682.09;4817974;29;20568;-63
2021/07/06 05:00:03;;;;;;;8.35;5.55;;;;;;;21.25;60.58;99690.31;4807234;29;20085;-64
2021/07/06 05:02:29;;;;;;;8.18;5.43;;;;;;;21.32;60.25;99694.13;4823033;29;20073;-59
2021/07/06 05:04:54;;;;;;;9.15;6.05;;;;;;;21.39;60.48;99698.00;4827594;29;20325;-60
2021/07/06 05:07:21;;;;;;;10.07;5.68;;;;;;;21.45;60.34;99695.72;4824064;29;20057;-64
2021/07/06 05:09:46;;;;;;;9.77;5.57;;;;;;;21.55;59.97;99699.31;4825107;29;20047;-61
2021/07/06 05:12:12;;;;;;;11.88;5.78;;;;;;;21.61;59.87;99697.13;4819977;29;20045;-61
2021/07/06 05:14:38;;;;;;;17.48;6.90;;;;;;;21.69;60.05;99702.66;4822439;29;20506;-61
2021/07/06 05:17:03;;;;;;;11.80;5.15;;;;;;;21.76;58.50;99702.03;4822185;29;20046;-62
2021/07/06 05:19:29;;;;;;;10.52;5.55;;;;;;;21.84;58.40;99704.06;4821877;29;20057;-61
2021/07/06 05:21:55;;;;;;;15.27;5.20;;;;;;;21.91;58.44;99706.09;4822198;29;20106;-61
2021/07/06 05:24:20;;;;;;;12.70;5.38;;;;;;;21.99;58.82;99702.84;4822206;29;20402;-62
2021/07/06 05:26:46;;;;;;;10.65;5.38;;;;;;;22.05;59.00;99709.47;4822479;29;20083;-60
2021/07/06 05:29:12;;;;;;;8.48;5.57;;;;;;;22.13;57.67;99702.59;4821452;29;20083;-60
2021/07/06 05:31:38;;;;;;;9.63;5.90;;;;;;;22.22;56.81;99708.94;4817583;29;20137;-61
2021/07/06 05:34:04;;;;;;;10.93;6.47;;;;;;;22.30;57.10;99707.31;4818368;29;20190;-62
2021/07/06 05:36:30;;;;;;;10.05;5.32;;;;;;;22.35;56.07;99715.72;4817387;29;20141;-59
2021/07/06 05:38:56;;;;;;;13.15;6.00;;;;;;;22.43;55.81;99703.66;4817914;29;20211;-61
2021/07/06 05:41:22;;;;;;;11.10;6.75;;;;;;;22.52;54.79;99708.19;4817342;29;20054;-62
2021/07/06 05:43:47;;;;;;;7.38;5.45;;;;;;;22.62;54.72;99712.59;4817832;29;20058;-60
2021/07/06 05:46:13;;;;;;;11.55;6.47;;;;;;;22.71;54.06;99705.75;4801600;29;20049;-59
2021/07/06 05:48:39;;;;;;;6.57;5.30;;;;;;;22.77;53.52;99708.69;4817428;29;20043;-60
2021/07/06 05:51:04;;;;;;;10.73;5.93;;;;;;;22.86;53.81;99711.56;4817879;29;20054;-64
2021/07/06 05:53:30;;;;;;;12.43;6.32;;;;;;;22.96;53.16;99707.16;4817131;29;20102;-60
2021/07/06 05:55:56;;;;;;;9.30;5.68;;;;;;;23.05;52.96;99711.66;4818250;29;20517;-60
2021/07/06 05:58:21;;;;;;;8.32;5.68;;;;;;;23.14;52.78;99709.06;4818963;29;20042;-60
2021/07/06 06:00:47;;;;;;;11.82;5.45;;;;;;;23.26;52.13;99712.47;4826770;29;20470;-60
2021/07/06 06:03:13;;;;;;;7.57;5.70;;;;;;;23.36;51.52;99708.06;4826688;29;20496;-61
2021/07/06 06:05:39;;;;;;;10.98;5.43;;;;;;;23.46;50.40;99713.44;4822254;29;20042;-61
2021/07/06 06:08:05;;;;;;;12.38;5.75;;;;;;;23.56;49.55;99716.97;4835863;29;20517;-60
2021/07/06 06:10:30;;;;;;;22.35;5.93;;;;;;;23.70;49.22;99707.81;4840417;29;20042;-60
2021/07/06 06:12:56;;;;;;;7.85;5.40;;;;;;;23.80;48.92;99716.63;4840247;29;20057;-61
2021/07/06 06:15:22;;;;;;;9.93;5.40;;;;;;;23.95;49.05;99717.94;4815469;29;20042;-60
2021/07/06 06:17:47;;;;;;;10.77;6.13;;;;;;;24.10;47.92;99713.06;4822324;29;20089;-60
2021/07/06 06:20:13;;;;;;;8.77;5.05;;;;;;;24.24;47.42;99716.16;4821786;29;20058;-61
2021/07/06 06:22:39;;;;;;;7.18;5.20;;;;;;;24.34;45.27;99718.81;4821876;29;20046;-61
2021/07/06 06:25:05;;;;;;;8.48;5.15;;;;;;;24.48;45.48;99710.47;4821996;29;20047;-60
2021/07/06 06:27:31;;;;;;;10.55;5.10;;;;;;;24.69;44.49;99719.13;4821954;29;20050;-60
2021/07/06 06:29:57;;;;;;;7.63;5.03;;;;;;;24.79;43.19;99708.47;4818201;29;20174;-60
2021/07/06 06:32:25;;;;;;;9.60;5.13;;;;;;;24.91;43.14;99710.03;4816722;29;20048;-59
2021/07/06 06:34:51;;;;;;;7.68;5.00;;;;;;;25.04;42.88;99721.19;4817912;29;20118;-60
2021/07/06 06:37:18;;;;;;;6.43;5.15;;;;;;;25.10;42.17;99722.44;4817065;29;20129;-60
2021/07/06 06:39:44;;;;;;;9.55;6.20;;;;;;;25.18;42.18;99718.06;4816891;29;20104;-61
2021/07/06 06:42:09;;;;;;;7.95;6.07;;;;;;;25.45;42.43;99721.75;4801413;29;20046;-58
2021/07/06 06:44:35;;;;;;;8.45;5.40;;;;;;;26.01;41.19;99725.13;4816914;29;20498;-61
2021/07/06 06:47:04;;;;;;;;;;;;;;;26.76;40.35;99723.03;4818666;29;20135;-61
2021/07/06 06:49:30;;;;;;;13.93;8.45;;;;;;;27.67;38.77;99722.50;5284051;24;19937;-60
2021/07/06 06:51:55;;;;;;;7.50;6.72;;;;;;;28.82;36.79;99719.06;4819203;29;20050;-61
2021/07/06 06:54:21;;;;;;;9.85;6.82;;;;;;;29.32;35.65;99726.88;4825151;29;20061;-59
2021/07/06 06:56:46;;;;;;;17.73;9.90;;;;;;;30.19;34.27;99725.88;4817479;29;20057;-61
2021/07/06 07:02:17;;;;;;;22.48;8.10;;;;;;;32.51;31.08;99721.84;4879332;24;20073;-59
2021/07/06 07:04:52;;;;;;;9.57;6.53;;;;;;;33.55;29.11;99728.31;4817871;29;20055;-61
2021/07/06 07:07:20;;;;;;;7.82;5.78;;;;;;;34.42;27.28;99721.19;4818135;29;20539;-61
2021/07/06 07:09:55;;;;;;;9.40;5.80;;;;;;;35.31;26.50;99728.06;5231323;24;20021;31
2021/07/06 07:12:21;;;;;;;10.27;9.15;;;;;;;35.98;25.22;99730.34;4778140;29;20423;-60
2021/07/06 07:14:47;;;;;;;8.93;6.38;;;;;;;36.77;24.24;99730.72;4800268;29;20046;-61
2021/07/06 07:17:13;;;;;;;6.55;5.85;;;;;;;37.54;23.19;99736.66;4802535;29;20082;-60
2021/07/06 07:19:39;;;;;;;7.20;6.50;;;;;;;38.18;22.55;99744.28;4801598;29;20043;-61
2021/07/06 07:22:06;;;;;;;9.65;7.18;;;;;;;38.51;21.41;99731.06;4802288;29;20058;-61
2021/07/06 07:24:31;;;;;;;11.05;6.28;;;;;;;39.05;21.13;99736.50;4802519;29;20061;-60
2021/07/06 07:26:57;;;;;;;8.95;5.93;;;;;;;39.64;20.21;99738.09;4801555;29;20054;-62
2021/07/06 07:29:24;;;;;;;11.35;7.13;;;;;;;40.13;20.05;99739.41;4802054;29;20043;-62
2021/07/06 07:31:50;;;;;;;10.88;5.85;;;;;;;40.54;19.47;99733.63;4801405;29;20084;-62
2021/07/06 07:34:16;;;;;;;7.57;6.68;;;;;;;40.82;18.74;99727.31;4802212;29;20466;-62
2021/07/06 07:36:42;;;;;;;21.48;7.32;;;;;;;41.16;18.68;99725.41;4801096;29;20050;-61
2021/07/06 07:39:08;;;;;;;8.43;7.10;;;;;;;41.51;18.44;99735.19;4801949;29;20046;-61
2021/07/06 07:41:34;;;;;;;11.60;6.65;;;;;;;41.80;18.21;99729.28;5287189;24;20676;-62
2021/07/06 07:44:00;;;;;;;12.20;7.13;;;;;;;42.18;17.87;99730.28;4844915;29;20402;-62
2021/07/06 07:46:27;;;;;;;11.85;6.88;;;;;;;42.31;17.90;99723.59;4843914;29;20543;-63
2021/07/06 07:48:52;;;;;;;7.65;6.50;;;;;;;42.32;17.51;99726.06;4807668;29;20104;-61
2021/07/06 07:51:19;;;;;;;32.22;10.85;;;;;;;42.57;17.77;99722.72;4838361;29;20049;-60
2021/07/06 07:53:45;;;;;;;9.27;7.33;;;;;;;42.63;16.82;99725.25;4839093;29;20061;-61
2021/07/06 07:56:12;;;;;;;8.75;6.72;;;;;;;42.94;16.74;99720.03;4838709;29;20325;-61
2021/07/06 07:58:38;;;;;;;7.97;6.95;;;;;;;43.36;16.40;99723.63;4854970;29;20045;-62
2021/07/06 08:01:04;;;;;;;15.02;6.95;;;;;;;43.55;15.77;99721.25;4856062;29;20047;-62
2021/07/06 08:03:29;;;;;;;6.68;6.03;;;;;;;43.72;15.59;99718.31;4853924;29;20098;-62
2021/07/06 08:06:01;;;;;;;7.50;6.57;;;;;;;43.95;15.73;99720.63;4829402;29;20517;-62
2021/07/06 08:08:27;;;;;;;8.50;6.85;;;;;;;44.12;15.67;99713.00;4845105;29;20595;-60
2021/07/06 08:10:53;;;;;;;7.07;6.57;;;;;;;44.30;15.25;99728.94;4838955;29;20106;-62
2021/07/06 08:13:20;;;;;;;10.45;7.50;;;;;;;44.38;15.21;99722.09;4837469;29;20050;-60
2021/07/06 08:15:46;;;;;;;7.53;6.70;;;;;;;44.40;15.34;99722.63;4835440;29;20133;-60
2021/07/06 08:18:11;;;;;;;8.65;7.95;;;;;;;44.30;15.03;99722.63;4838920;29;20530;-61
2021/07/06 08:20:37;;;;;;;12.20;8.32;;;;;;;44.44;15.16;99715.50;4837632;29;20042;-62
2021/07/06 08:23:03;;;;;;;11.52;7.43;;;;;;;44.28;14.95;99717.41;4838874;29;20110;-62
2021/07/06 08:25:29;;;;;;;7.80;7.13;;;;;;;44.30;14.68;99717.97;4837077;29;20136;-62
2021/07/06 08:27:54;;;;;;;7.03;6.43;;;;;;;44.44;14.62;99711.97;4827289;29;20506;-61
2021/07/06 08:30:20;;;;;;;8.25;7.07;;;;;;;44.17;14.83;99710.25;4837093;29;20041;-60
2021/07/06 08:32:46;;;;;;;15.75;11.02;;;;;;;44.28;15.21;99703.69;5272035;24;20407;-62
2021/07/06 08:35:12;;;;;;;11.45;10.25;;;;;;;44.83;14.50;99713.06;4819590;29;20038;-61
2021/07/06 08:37:38;;;;;;;8.10;7.07;;;;;;;45.17;13.75;99709.75;4819950;29;20294;-62
2021/07/06 08:40:05;;;;;;;13.63;9.60;;;;;;;45.35;13.87;99701.69;4820032;29;20073;-61
2021/07/06 08:42:31;;;;;;;;;;;;;;;45.62;14.38;99712.34;5276105;24;20629;-61
2021/07/06 08:44:56;;;;;;;17.90;12.05;;;;;;;45.95;14.45;99714.41;4837042;29;19924;-61
2021/07/06 08:47:23;;;;;;;11.65;8.52;;;;;;;46.06;13.33;99714.34;4837808;29;20575;-62
2021/07/06 08:49:52;;;;;;;9.82;8.10;;;;;;;46.14;12.72;99713.72;4828661;29;20081;-61
2021/07/06 08:52:18;;;;;;;7.30;6.60;;;;;;;46.07;12.80;99711.28;4838870;29;20053;-61
2021/07/06 08:54:45;;;;;;;15.70;7.63;;;;;;;45.46;13.34;99706.09;4841301;29;20050;-62
2021/07/06 08:57:11;;;;;;;14.88;8.98;;;;;;;45.64;13.63;99698.31;4841284;29;20041;-62
2021/07/06 08:59:40;;;;;;;8.07;7.38;;;;;;;46.05;13.36;99705.25;4841387;29;20042;-61
2021/07/06 09:02:07;;;;;;;13.80;11.70;;;;;;;46.41;13.88;99705.84;4841609;29;20062;-61
2021/07/06 09:04:52;;;;;;;8.85;7.93;;;;;;;46.64;13.37;99705.09;4823876;29;20248;-62
2021/07/06 09:07:18;;;;;;;8.90;8.02;;;;;;;46.65;13.50;99708.69;4841175;29;20511;-62
2021/07/06 09:09:45;;;;;;;9.40;7.40;;;;;;;46.51;12.57;99692.00;4841184;29;20467;-62
2021/07/06 09:12:12;;;;;;;48.37;43.17;;;;;;;46.40;12.95;99693.19;4841227;29;20069;-63
2021/07/06 09:14:44;;;;;;;10.07;9.23;;;;;;;46.07;13.03;99697.53;4840982;29;20290;-61
2021/07/06 09:17:16;;;;;;;12.05;8.40;;;;;;;46.48;13.15;99702.78;4841139;29;20099;-62
2021/07/06 09:19:48;;;;;;;12.80;9.48;;;;;;;46.71;12.83;99696.53;4840858;29;20133;-61
2021/07/06 09:22:25;;;;;;;7.95;7.40;;;;;;;46.84;12.48;99693.09;4841104;29;20101;-61
2021/07/06 09:25:03;;;;;;;8.18;7.43;;;;;;;46.90;12.69;99685.63;4837106;29;20095;-61
2021/07/06 09:27:34;;;;;;;8.00;7.38;;;;;;;47.05;12.42;99686.31;4821748;29;20069;-63
2021/07/06 09:30:19;;;;;;;13.70;8.48;;;;;;;47.30;12.50;99679.69;4840529;29;20057;-62
2021/07/06 09:32:51;;;;;;;9.32;7.43;;;;;;;47.39;12.63;99685.38;4840708;29;20087;-62
2021/07/06 09:35:26;;;;;;;8.43;7.80;;;;;;;47.37;12.19;99682.09;4840451;29;20046;-62
2021/07/06 09:38:02;;;;;;;9.10;8.40;;;;;;;47.30;12.56;99681.63;4840087;29;20049;-62
2021/07/06 09:40:35;;;;;;;9.27;8.57;;;;;;;47.38;12.96;99680.97;4840789;29;20136;-62
2021/07/06 09:43:31;;;;;;;14.50;12.63;;;;;;;47.28;12.91;99667.31;4839896;29;20062;-62
2021/07/06 09:45:58;;;;;;;10.53;9.37;;;;;;;47.44;13.05;99666.00;4825743;29;20091;-63
2021/07/06 09:48:24;;;;;;;13.18;11.85;;;;;;;47.55;12.37;99662.00;4840475;29;20105;-62
2021/07/06 09:50:50;;;;;;;9.43;8.52;;;;;;;47.56;12.12;99658.97;4840287;29;20084;-63
2021/07/06 09:53:51;;;;;;;29.40;15.52;;;;;;;47.57;12.42;99671.63;4839004;29;20050;-61
2021/07/06 09:56:19;;;;;;;9.88;8.40;;;;;;;47.60;12.31;99667.44;4811604;29;20149;-60
2021/07/06 09:59:03;;;;;;;9.48;8.55;;;;;;;47.85;12.15;99666.28;4832999;29;20042;-62
2021/07/06 10:01:30;;;;;;;9.07;8.27;;;;;;;47.74;12.23;99670.34;4822691;29;20060;-62
2021/07/06 10:03:57;;;;;;;9.00;8.20;;;;;;;47.86;12.17;99659.66;4840127;29;20038;-62
2021/07/06 10:06:28;;;;;;;8.73;7.93;;;;;;;47.84;12.25;99659.16;4839991;29;20042;-62
2021/07/06 10:08:54;;;;;;;9.02;8.23;;;;;;;47.78;12.37;99654.84;4840393;29;20038;-62
2021/07/06 10:11:21;;;;;;;14.68;9.73;;;;;;;47.82;12.53;99664.97;4840174;29;20049;-64
2021/07/06 10:13:47;;;;;;;10.23;9.25;;;;;;;47.90;12.72;99658.75;4839883;29;20050;-62
2021/07/06 10:16:17;;;;;;;9.60;8.77;;;;;;;47.69;12.53;99671.19;4840125;29;20480;-62
2021/07/06 10:18:44;;;;;;;8.60;7.90;;;;;;;47.36;12.82;99663.94;4840497;29;20045;-63
2021/07/06 10:21:10;;;;;;;8.73;8.00;;;;;;;47.44;12.71;99666.84;4840130;29;20049;-63
2021/07/06 10:23:38;;;;;;;12.82;9.02;;;;;;;47.61;12.78;99663.59;4840143;29;20076;-62
2021/07/06 10:26:05;;;;;;;12.90;8.82;;;;;;;47.78;12.72;99646.56;4821206;29;20057;-62
2021/07/06 10:28:32;;;;;;;10.93;8.13;;;;;;;47.77;11.96;99654.00;4823324;29;20123;-62
2021/07/06 10:31:15;;;;;;;10.10;8.18;;;;;;;47.92;12.12;99648.25;4840096;29;20046;-62
2021/07/06 10:33:42;;;;;;;8.40;7.63;;;;;;;47.68;11.96;99650.28;4839914;29;20053;-61
2021/07/06 10:36:08;;;;;;;9.32;8.35;;;;;;;47.83;12.21;99641.78;4840115;29;20493;-63
2021/07/06 10:38:39;;;;;;;9.25;8.38;;;;;;;47.74;12.41;99649.06;4840250;29;20041;-63
2021/07/06 10:41:34;;;;;;;8.52;7.70;;;;;;;47.76;11.91;99646.03;4840114;29;20057;-63
2021/07/06 10:43:59;;;;;;;8.70;7.95;;;;;;;47.47;12.04;99640.63;4826924;29;20062;-62
2021/07/06 10:46:44;;;;;;;18.77;16.73;;;;;;;47.43;12.62;99645.91;4834944;29;20101;-65
2021/07/06 10:49:32;;;;;;;10.10;9.15;;;;;;;47.36;12.53;99623.41;4837676;29;20037;-63
2021/07/06 10:52:00;;;;;;;8.02;7.43;;;;;;;47.28;12.54;99623.25;4823605;29;20094;-64
2021/07/06 10:54:29;;;;;;;8.32;7.53;;;;;;;47.17;11.98;99628.03;4841425;29;20057;-64
2021/07/06 10:56:59;;;;;;;10.50;9.60;;;;;;;46.72;12.50;99621.09;4843584;29;20054;-62
2021/07/06 10:59:31;;;;;;;14.50;8.60;;;;;;;47.06;12.67;99624.59;4843164;29;20061;-63
2021/07/06 11:02:07;;;;;;;11.40;8.15;;;;;;;47.22;12.66;99627.97;4843591;29;20180;-63
2021/07/06 11:04:51;;;;;;;7.80;6.93;;;;;;;47.25;12.04;99626.56;4839242;29;20160;-63
2021/07/06 11:07:42;;;;;;;8.68;7.60;;;;;;;47.04;12.77;99623.25;4841311;29;20049;-63
2021/07/06 11:10:08;;;;;;;8.70;7.93;;;;;;;47.12;12.52;99628.09;4811196;29;20546;-63
2021/07/06 11:12:49;;;;;;;8.20;7.50;;;;;;;47.37;11.75;99627.78;4836552;29;20050;-63
2021/07/06 11:15:19;;;;;;;9.55;8.63;;;;;;;47.36;12.30;99620.66;4823340;29;20074;-62
2021/07/06 11:17:47;;;;;;;10.52;7.88;;;;;;;47.45;11.62;99629.91;4843194;29;20042;-61
2021/07/06 11:20:16;;;;;;;8.25;7.55;;;;;;;47.43;11.43;99628.53;4842946;29;20141;-63
2021/07/06 11:22:54;;;;;;;9.45;7.88;;;;;;;47.02;12.04;99620.78;4843109;29;20085;-62
2021/07/06 11:25:20;;;;;;;10.02;8.43;;;;;;;47.05;12.42;99608.38;4842962;29;20399;-63
2021/07/06 11:27:59;;;;;;;;;;;;;;;47.29;12.47;99619.38;4843383;29;20073;-63
2021/07/06 11:30:39;;;;;;;17.63;13.93;;;;;;;47.29;12.04;99617.44;4842962;29;20011;-64
2021/07/06 11:33:18;;;;;;;12.15;9.63;;;;;;;47.17;11.77;99614.25;4841840;29;20046;-63
2021/07/06 11:35:46;;;;;;;16.27;9.00;;;;;;;47.50;12.03;99604.22;4842879;29;20054;-62
2021/07/06 11:38:15;;;;;;;9.30;8.35;;;;;;;47.52;12.26;99607.50;4842881;29;20207;-62
2021/07/06 11:40:43;;;;;;;26.40;9.25;;;;;;;47.37;12.29;99611.25;4842508;29;20054;-63